createdAt,value
2023-05-16T00:02:19.427Z,52.25
2023-05-16T00:04:46.278Z,52.51
2023-05-16T00:07:12.874Z,52.53
2023-05-16T00:09:39.587Z,52.17
2023-05-16T00:12:06.467Z,51.88
2023-05-16T00:14:33.107Z,51.97
2023-05-16T00:16:59.695Z,52.34
2023-05-16T00:19:27.597Z,51.96
2023-05-16T00:21:54.106Z,51.71
2023-05-16T00:24:20.615Z,51.55
2023-05-16T00:26:47.151Z,51.72
2023-05-16T00:29:14.669Z,51.73
2023-05-16T00:31:41.338Z,52.25
2023-05-16T00:34:08.272Z,51.97
2023-05-16T00:36:35.841Z,51.69
2023-05-16T00:39:02.983Z,51.73
2023-05-16T00:41:29.658Z,51.76
2023-05-16T00:43:56.155Z,51.67
2023-05-16T00:46:22.843Z,51.55
2023-05-16T00:48:49.481Z,51.46
2023-05-16T00:51:17.645Z,51.96
2023-05-16T00:53:44.216Z,51.51
2023-05-16T00:56:11.116Z,51.76
2023-05-16T00:58:37.741Z,51.49
2023-05-16T01:01:05.033Z,51.26
2023-05-16T01:03:32.136Z,51.62
2023-05-16T01:05:59.769Z,51.87
2023-05-16T01:08:26.313Z,51.65
2023-05-16T01:10:52.814Z,51.80
2023-05-16T01:13:30.055Z,51.46
2023-05-16T01:16:04.756Z,51.56
2023-05-16T01:18:43.231Z,52.18
2023-05-16T01:21:19.332Z,52.08
2023-05-16T01:23:58.613Z,51.77
2023-05-16T01:26:27.694Z,51.72
2023-05-16T01:28:54.967Z,52.12
2023-05-16T01:31:22.794Z,51.57
2023-05-16T01:33:50.950Z,51.70
2023-05-16T01:36:41.876Z,51.98
2023-05-16T01:39:33.721Z,51.90
2023-05-16T01:42:06.322Z,51.81
2023-05-16T01:44:46.788Z,51.79
2023-05-16T01:47:16.647Z,51.51
2023-05-16T01:49:57.112Z,51.61
2023-05-16T01:52:56.272Z,51.68
2023-05-16T01:55:46.545Z,51.78
2023-05-16T01:58:15.318Z,51.85
2023-05-16T02:00:42.552Z,51.67
2023-05-16T02:03:09.620Z,51.93
2023-05-16T02:05:36.274Z,51.97
2023-05-16T02:08:03.240Z,52.08
2023-05-16T02:10:29.873Z,52.28
2023-05-16T02:12:56.649Z,51.97
2023-05-16T02:15:23.623Z,51.75
2023-05-16T02:17:50.561Z,51.40
2023-05-16T02:20:17.205Z,51.71
2023-05-16T02:22:44.262Z,51.47
2023-05-16T02:25:11.161Z,51.61
2023-05-16T02:27:37.723Z,51.46
2023-05-16T02:30:05.533Z,51.75
2023-05-16T02:32:32.889Z,51.47
2023-05-16T02:34:59.655Z,51.30
2023-05-16T02:37:26.189Z,50.86
2023-05-16T02:39:52.709Z,51.20
2023-05-16T02:42:19.274Z,51.38
2023-05-16T02:44:45.943Z,51.72
2023-05-16T02:47:12.513Z,51.61
2023-05-16T02:49:39.080Z,51.59
2023-05-16T02:52:06.613Z,51.45
2023-05-16T02:54:33.834Z,51.36
2023-05-16T02:57:00.790Z,51.12
2023-05-16T02:59:27.334Z,51.44
2023-05-16T03:01:53.864Z,51.43
2023-05-16T03:04:20.558Z,51.65
2023-05-16T03:06:48.883Z,51.33
2023-05-16T03:09:15.634Z,51.44
2023-05-16T03:11:43.264Z,51.54
2023-05-16T03:14:09.795Z,51.23
2023-05-16T03:16:38.657Z,51.54
2023-05-16T03:19:05.685Z,51.66
2023-05-16T03:21:33.651Z,52.01
2023-05-16T03:24:00.394Z,51.48
2023-05-16T03:26:27.461Z,51.88
2023-05-16T03:28:54.029Z,51.57
2023-05-16T03:31:20.605Z,51.14
2023-05-16T03:33:47.245Z,51.11
2023-05-16T03:36:13.795Z,51.66
2023-05-16T03:38:40.463Z,51.42
2023-05-16T03:41:07.002Z,51.22
2023-05-16T03:43:33.606Z,51.83
2023-05-16T03:46:01.682Z,51.69
2023-05-16T03:48:28.316Z,51.61
2023-05-16T03:50:54.922Z,51.41
2023-05-16T03:53:21.495Z,51.41
2023-05-16T03:55:48.816Z,51.42
2023-05-16T03:58:16.432Z,51.28
2023-05-16T04:00:43.097Z,51.67
2023-05-16T04:03:09.746Z,51.47
2023-05-16T04:05:36.468Z,52.09
2023-05-16T04:08:03.148Z,51.75
2023-05-16T04:10:29.692Z,51.03
2023-05-16T04:12:56.214Z,51.39
2023-05-16T04:15:22.744Z,51.63
2023-05-16T04:17:49.339Z,51.95
2023-05-16T04:20:16.857Z,51.35
2023-05-16T04:22:43.347Z,51.82
2023-05-16T04:25:11.189Z,51.71
2023-05-16T04:27:38.476Z,51.21
2023-05-16T04:30:05.489Z,51.58
2023-05-16T04:32:35.210Z,51.41
2023-05-16T04:35:02.117Z,51.48
2023-05-16T04:37:28.760Z,51.45
2023-05-16T04:39:55.279Z,51.86
2023-05-16T04:42:22.140Z,52.02
2023-05-16T04:44:48.891Z,52.27
2023-05-16T04:47:15.585Z,52.83
2023-05-16T04:49:42.165Z,53.02
2023-05-16T04:52:09.019Z,53.10
2023-05-16T04:54:35.553Z,52.72
2023-05-16T04:57:02.151Z,52.58
2023-05-16T04:59:28.677Z,52.21
2023-05-16T05:01:55.259Z,52.45
2023-05-16T05:04:22.658Z,52.21
2023-05-16T05:06:49.280Z,51.93
2023-05-16T05:09:16.093Z,52.41
2023-05-16T05:11:42.627Z,52.23
2023-05-16T05:14:09.279Z,52.55
2023-05-16T05:16:37.345Z,52.67
2023-05-16T05:19:03.873Z,52.64
2023-05-16T05:21:30.673Z,52.44
2023-05-16T05:23:57.730Z,52.17
2023-05-16T05:26:26.081Z,51.37
2023-05-16T05:29:04.457Z,52.07
2023-05-16T05:31:34.669Z,52.26
2023-05-16T05:34:02.654Z,52.13
2023-05-16T05:36:29.171Z,52.38
2023-05-16T05:38:55.710Z,52.28
2023-05-16T05:41:22.350Z,52.34
2023-05-16T05:43:49.388Z,52.13
2023-05-16T05:46:17.249Z,52.21
2023-05-16T05:48:43.958Z,52.33
2023-05-16T05:51:10.570Z,52.01
2023-05-16T05:53:37.096Z,51.45
2023-05-16T05:56:03.663Z,51.50
2023-05-16T05:58:30.331Z,52.12
2023-05-16T06:00:56.873Z,52.12
2023-05-16T06:03:23.463Z,52.11
2023-05-16T06:05:50.118Z,52.07
2023-05-16T06:08:16.655Z,52.17
2023-05-16T06:10:43.183Z,52.15
2023-05-16T06:13:09.704Z,52.37
2023-05-16T06:15:36.216Z,51.76
2023-05-16T06:18:02.981Z,51.80
2023-05-16T06:20:29.604Z,51.55
2023-05-16T06:22:56.425Z,51.44
2023-05-16T06:25:22.938Z,51.42
2023-05-16T06:27:49.713Z,51.61
2023-05-16T06:30:16.286Z,51.93
2023-05-16T06:32:42.937Z,51.81
2023-05-16T06:35:09.769Z,51.59
2023-05-16T06:37:36.575Z,52.01
2023-05-16T06:40:03.391Z,51.87
2023-05-16T06:42:29.957Z,51.39
2023-05-16T06:44:56.586Z,51.19
2023-05-16T06:47:23.229Z,50.44
2023-05-16T06:49:50.872Z,50.21
2023-05-16T06:52:17.546Z,49.72
2023-05-16T06:54:44.242Z,49.92
2023-05-16T06:57:10.921Z,49.34
2023-05-16T06:59:37.496Z,49.83
2023-05-16T07:02:04.356Z,50.09
2023-05-16T07:04:31.078Z,50.12
2023-05-16T07:06:57.692Z,49.89
2023-05-16T07:09:24.340Z,50.03
2023-05-16T07:11:50.889Z,49.17
2023-05-16T07:14:17.499Z,49.28
2023-05-16T07:16:44.282Z,48.08
2023-05-16T07:19:11.572Z,48.07
2023-05-16T07:21:38.363Z,48.40
2023-05-16T07:24:07.987Z,48.51
2023-05-16T07:26:34.761Z,48.57
2023-05-16T07:29:02.745Z,48.44
2023-05-16T07:31:29.379Z,48.71
2023-05-16T07:33:56.107Z,47.83
2023-05-16T07:36:23.022Z,48.29
2023-05-16T07:38:49.600Z,48.59
2023-05-16T07:41:16.376Z,48.89
2023-05-16T07:43:42.948Z,49.20
2023-05-16T07:46:10.610Z,49.46
2023-05-16T07:48:37.265Z,48.83
2023-05-16T07:51:03.864Z,49.61
2023-05-16T07:53:30.695Z,50.15
2023-05-16T07:55:57.321Z,50.40
2023-05-16T07:58:24.088Z,50.49
2023-05-16T08:00:50.867Z,50.36
2023-05-16T08:03:17.498Z,50.56
2023-05-16T08:05:44.373Z,51.24
2023-05-16T08:08:11.279Z,51.50
2023-05-16T08:10:37.860Z,52.07
2023-05-16T08:13:04.556Z,52.38
2023-05-16T08:15:31.235Z,52.45
2023-05-16T08:17:58.996Z,52.33
2023-05-16T08:20:26.755Z,52.51
2023-05-16T08:22:53.917Z,52.36
2023-05-16T08:25:20.763Z,52.24
2023-05-16T08:27:50.047Z,52.62
2023-05-16T08:30:16.980Z,52.61
2023-05-16T08:32:43.745Z,52.67
2023-05-16T08:35:11.231Z,53.23
2023-05-16T08:37:37.975Z,53.53
2023-05-16T08:40:08.195Z,53.52
2023-05-16T08:42:35.292Z,53.59
2023-05-16T08:45:02.285Z,53.96
2023-05-16T08:47:31.380Z,54.03
2023-05-16T08:49:59.183Z,54.68
2023-05-16T08:52:30.534Z,54.26
2023-05-16T08:55:12.090Z,54.38
2023-05-16T08:57:39.520Z,54.36
2023-05-16T09:00:11.875Z,54.34
2023-05-16T09:02:41.165Z,54.10
2023-05-16T09:05:15.918Z,53.98
2023-05-16T09:07:43.956Z,53.82
2023-05-16T09:10:12.085Z,53.95
2023-05-16T09:12:40.166Z,54.18
2023-05-16T09:15:08.314Z,54.01
2023-05-16T09:17:42.295Z,54.25
2023-05-16T09:20:20.040Z,54.12
2023-05-16T09:22:54.152Z,53.24
2023-05-16T09:25:30.922Z,53.72
2023-05-16T09:28:00.135Z,54.10
2023-05-16T09:30:32.119Z,53.91
2023-05-16T09:32:59.701Z,53.74
2023-05-16T09:35:43.261Z,54.17
2023-05-16T09:38:16.491Z,54.40
2023-05-16T09:40:43.486Z,54.40
2023-05-16T09:43:10.118Z,54.66
2023-05-16T09:45:36.949Z,54.49
2023-05-16T09:48:10.124Z,54.35
